Time;durP1;ratioP1;P1;durP2;ratioP2;P2;SDS_P1;SDS_P2;PMS_P1;PMS_P2;Temp;Humidity;BMP_temperature;BMP_pressure;BME280_temperature;BME280_humidity;BME280_pressure;Samples;Min_cycle;Max_cycle;Signal;HPM_P1;HPM_P2
2022/04/11 00:00:50;;;;;;;;;;;;;;;19.95;39.20;101753.78;5036017;28;19932;-85
2022/04/11 00:03:15;;;;;;;;;;;;;;;19.93;39.38;101751.31;5053510;28;19913;-85
2022/04/11 00:05:41;;;;;;;;;;;;;;;19.93;39.03;101745.00;5035763;28;20440;-85
2022/04/11 00:08:06;;;;;;;;;;;;;;;19.92;39.11;101743.38;5053136;28;19921;-85
2022/04/11 00:10:31;;;;;;;;;;;;;;;19.91;39.01;101744.47;5057581;28;19920;-85
2022/04/11 00:13:06;;;;;;;;;;;;;;;19.91;39.08;101744.47;5057825;28;19925;-85
2022/04/11 00:15:33;;;;;;;;;;;;;;;19.90;38.95;101749.13;5041552;28;19928;-86
2022/04/11 00:18:04;;;;;;;;;;;;;;;19.90;39.14;101749.13;5056515;28;20019;-86
2022/04/11 00:20:29;;;;;;;;;;;;;;;19.88;39.17;101735.72;5039990;28;20365;-85
2022/04/11 00:22:55;;;;;;;;;;;;;;;19.89;39.16;101731.03;5040076;28;19968;-85
2022/04/11 00:25:20;;;;;;;;;;;;;;;19.87;39.14;101725.84;5057652;28;19977;-85
2022/04/11 00:27:46;;;;;;;;;;;;;;;19.87;39.25;101725.03;5057585;28;20292;-85
2022/04/11 00:30:11;;;;;;;;;;;;;;;19.87;39.10;101722.28;5023025;28;19921;-85
2022/04/11 00:32:45;;;;;;;;;;;;;;;19.85;39.04;101719.81;5039867;28;19921;-85
2022/04/11 00:35:11;;;;;;;;;;;;;;;19.85;39.09;101719.81;5039851;28;19927;-86
2022/04/11 00:37:37;;;;;;;;;;;;;;;19.85;39.07;101721.72;5057768;28;19917;-85
2022/04/11 00:40:03;;;;;;;;;;;;;;;19.85;39.29;101719.00;5039739;28;19924;-86
2022/04/11 00:42:29;;;;;;;;;;;;;;;19.84;39.18;101718.19;5039675;28;19917;-89
2022/04/11 00:44:54;;;;;;;;;;;;;;;19.83;39.31;101704.75;5024290;28;19982;-90
2022/04/11 00:47:19;;;;;;;;;;;;;;;19.83;39.12;101707.47;5040379;28;20373;-90
2022/04/11 00:49:46;;;;;;;;;;;;;;;19.82;38.99;101698.44;5040055;28;19921;-90
2022/04/11 00:52:12;;;;;;;;;;;;;;;19.82;39.26;101698.44;5040364;28;19994;-90
2022/04/11 00:54:37;;;;;;;;;;;;;;;19.82;39.08;101703.09;5023376;28;20357;-89
2022/04/11 00:57:03;;;;;;;;;;;;;;;19.81;39.26;101702.28;5040370;28;19916;-91
2022/04/11 00:59:30;;;;;;;;;;;;;;;19.81;39.37;101702.28;5023395;28;19978;-90
2022/04/11 01:01:55;;;;;;;;;;;;;;;19.81;39.33;101706.97;5040055;28;20349;-91
2022/04/11 01:04:23;;;;;;;;;;;;;;;19.80;39.14;101694.34;5039922;28;19924;-90
2022/04/11 01:06:49;;;;;;;;;;;;;;;19.80;39.10;101699.81;5040503;28;20027;-89
2022/04/11 01:09:14;;;;;;;;;;;;;;;19.79;39.16;101699.00;5023239;28;20018;-88
2022/04/11 01:11:39;;;;;;;;;;;;;;;19.78;39.13;101697.38;5023281;28;19924;-90
2022/04/11 01:14:05;;;;;;;;;;;;;;;19.78;39.28;101691.91;5056421;28;19927;-90
2022/04/11 01:16:30;;;;;;;;;;;;;;;19.77;39.25;101692.97;5040139;28;20276;-90
2022/04/11 01:18:55;;;;;;;;;;;;;;;19.77;39.09;101695.72;5039426;28;19917;-90
2022/04/11 01:21:21;;;;;;;;;;;;;;;19.77;39.31;101686.69;5055973;28;19921;-90
2022/04/11 01:23:46;;;;;;;;;;;;;;;19.77;39.08;101692.16;5056173;28;19974;-91
2022/04/11 01:26:12;;;;;;;;;;;;;;;19.76;39.19;101687.81;5039619;28;19928;-90
2022/04/11 01:28:40;;;;;;;;;;;;;;;19.75;39.33;101691.63;5023074;28;20059;-90
2022/04/11 01:31:05;;;;;;;;;;;;;;;19.75;39.33;101688.88;5023411;28;19927;-90
2022/04/11 01:33:31;;;;;;;;;;;;;;;19.75;39.21;101688.88;5039204;28;19922;-90
2022/04/11 01:35:57;;;;;;;;;;;;;;;19.74;39.16;101695.47;5039311;28;19960;-89
2022/04/11 01:38:22;;;;;;;;;;;;;;;19.74;39.17;101696.28;5022732;28;19975;-90
2022/04/11 01:40:48;;;;;;;;;;;;;;;19.72;39.21;101690.25;5038931;28;19920;-89
2022/04/11 01:43:13;;;;;;;;;;;;;;;19.72;39.25;101690.25;5022870;28;19971;-89
2022/04/11 01:45:39;;;;;;;;;;;;;;;19.72;39.18;101690.25;5039027;28;19917;-89
2022/04/11 01:48:04;;;;;;;;;;;;;;;19.71;38.98;101685.09;5022590;28;20438;-89
2022/04/11 01:50:29;;;;;;;;;;;;;;;19.71;39.29;101683.16;5022352;28;19929;-89
2022/04/11 01:52:54;;;;;;;;;;;;;;;19.71;39.38;101688.63;5022693;28;19924;-89
2022/04/11 01:55:20;;;;;;;;;;;;;;;19.71;39.19;101687.81;5022413;28;20111;-90
2022/04/11 01:57:45;;;;;;;;;;;;;;;19.70;39.39;101672.47;5057169;28;19920;-89
2022/04/11 02:00:12;;;;;;;;;;;;;;;19.69;39.22;101679.88;5056869;28;20343;-89
2022/04/11 02:02:37;;;;;;;;;;;;;;;19.67;39.15;101674.66;5056290;28;19924;-89
2022/04/11 02:05:02;;;;;;;;;;;;;;;19.68;39.15;101683.72;5022186;28;20288;-90
2022/04/11 02:07:28;;;;;;;;;;;;;;;19.67;39.36;101676.59;5039299;28;19925;-90
2022/04/11 02:09:53;;;;;;;;;;;;;;;19.66;39.49;101683.97;5055705;28;20380;-90
2022/04/11 02:12:18;;;;;;;;;;;;;;;19.65;39.17;101684.22;5023203;28;19927;-90
2022/04/11 02:14:43;;;;;;;;;;;;;;;19.66;39.21;101683.97;5022303;28;19921;-89
2022/04/11 02:17:09;;;;;;;;;;;;;;;19.66;39.29;101685.88;5022377;28;20360;-90
2022/04/11 02:19:34;;;;;;;;;;;;;;;19.66;39.27;101680.41;5038515;28;19928;-90
2022/04/11 02:21:59;;;;;;;;;;;;;;;19.64;39.26;101677.94;5022555;28;19920;-90
2022/04/11 02:24:24;;;;;;;;;;;;;;;19.64;39.31;101679.88;5051309;28;19952;-89
2022/04/11 02:26:50;;;;;;;;;;;;;;;19.64;39.37;101685.34;5061989;28;19905;-89
2022/04/11 02:29:15;;;;;;;;;;;;;;;19.64;39.13;101679.88;5043472;28;19932;-89
2022/04/11 02:31:40;;;;;;;;;;;;;;;19.63;39.25;101681.78;5022509;28;20373;-89
2022/04/11 02:34:05;;;;;;;;;;;;;;;19.63;39.28;101683.69;5039193;28;19917;-89
2022/04/11 02:36:30;;;;;;;;;;;;;;;19.63;39.33;101686.44;5038134;28;19927;-89
2022/04/11 02:38:56;;;;;;;;;;;;;;;19.62;39.62;101690.28;5021664;28;19960;-90
2022/04/11 02:41:21;;;;;;;;;;;;;;;19.61;39.25;101680.44;5021754;28;20316;-90
2022/04/11 02:43:46;;;;;;;;;;;;;;;19.61;39.47;101683.16;5022331;28;20016;-83
2022/04/11 02:46:12;;;;;;;;;;;;;;;19.61;39.61;101675.75;5021178;28;20254;-89
2022/04/11 02:48:38;;;;;;;;;;;;;;;19.60;39.40;101678.78;5021304;28;19921;-89
2022/04/11 02:51:03;;;;;;;;;;;;;;;19.59;39.30;101675.22;5055555;28;19921;-89
2022/04/11 02:53:28;;;;;;;;;;;;;;;19.60;39.37;101667.81;5021043;28;19920;-89
2022/04/11 02:55:54;;;;;;;;;;;;;;;19.59;39.48;101671.66;5054405;28;19921;-90
2022/04/11 02:58:19;;;;;;;;;;;;;;;19.58;39.41;101667.25;5054786;28;19917;-89
2022/04/11 03:00:44;;;;;;;;;;;;;;;19.58;39.24;101664.53;5021244;28;20023;-91
2022/04/11 03:03:12;;;;;;;;;;;;;;;19.57;39.25;101671.94;5021169;28;20292;-90
2022/04/11 03:05:38;;;;;;;;;;;;;;;19.57;39.29;101665.63;5055223;28;19924;-90
2022/04/11 03:08:03;;;;;;;;;;;;;;;19.57;39.48;101665.63;5021017;28;19928;-90
2022/04/11 03:10:28;;;;;;;;;;;;;;;19.56;39.22;101673.03;5054138;28;19956;-90
2022/04/11 03:12:54;;;;;;;;;;;;;;;19.56;39.31;101675.78;5021339;28;19921;-89
2022/04/11 03:15:19;;;;;;;;;;;;;;;19.55;39.29;101678.78;5054412;28;19921;-90
2022/04/11 03:17:44;;;;;;;;;;;;;;;19.54;39.44;101669.75;5038120;28;19952;-90
2022/04/11 03:20:10;;;;;;;;;;;;;;;19.54;39.31;101669.75;5021945;28;19921;-90
2022/04/11 03:22:35;;;;;;;;;;;;;;;19.53;39.37;101668.13;5037562;28;19928;-90
2022/04/11 03:25:00;;;;;;;;;;;;;;;19.53;39.32;101673.63;5037429;28;20046;-89
2022/04/11 03:27:26;;;;;;;;;;;;;;;19.52;39.26;101657.44;5037286;28;20019;-90
2022/04/11 03:29:51;;;;;;;;;;;;;;;19.52;39.26;101663.72;5053653;28;20322;-90
2022/04/11 03:32:16;;;;;;;;;;;;;;;19.52;39.44;101663.72;5020883;28;20281;-89
2022/04/11 03:34:42;;;;;;;;;;;;;;;19.51;39.42;101664.03;5020545;28;19927;-89
2022/04/11 03:37:07;;;;;;;;;;;;;;;19.51;39.42;101670.31;5054517;28;19921;-90
2022/04/11 03:39:32;;;;;;;;;;;;;;;19.50;39.40;101659.63;5021003;28;20407;-90
2022/04/11 03:41:57;;;;;;;;;;;;;;;19.50;39.24;101663.19;5020962;28;19925;-90
2022/04/11 03:44:23;;;;;;;;;;;;;;;19.49;39.36;101661.56;5037222;28;19928;-90
2022/04/11 03:46:48;;;;;;;;;;;;;;;19.49;39.40;101666.22;5020901;28;20399;-90
2022/04/11 03:49:13;;;;;;;;;;;;;;;19.48;39.29;101661.84;5037088;28;20361;-90
2022/04/11 03:51:38;;;;;;;;;;;;;;;19.48;39.23;101659.09;5020314;28;19925;-89
2022/04/11 03:54:04;;;;;;;;;;;;;;;19.46;39.36;101660.19;5053157;28;19917;-88
2022/04/11 03:56:29;;;;;;;;;;;;;;;19.46;39.45;101662.94;5053110;28;19974;-89
2022/04/11 03:58:54;;;;;;;;;;;;;;;19.45;39.48;101660.47;5053716;28;19924;-90
2022/04/11 04:01:20;;;;;;;;;;;;;;;19.46;39.41;101662.13;5036538;28;19921;-90
2022/04/11 04:03:45;;;;;;;;;;;;;;;19.46;39.20;101656.66;5036611;28;19916;-89
2022/04/11 04:06:11;;;;;;;;;;;;;;;19.44;39.36;101659.66;5019916;28;19921;-89
2022/04/11 04:08:36;;;;;;;;;;;;;;;19.44;39.22;101653.38;5054328;28;19923;-89
2022/04/11 04:11:02;;;;;;;;;;;;;;;19.43;39.44;101657.22;5054473;28;19921;-90
2022/04/11 04:13:27;;;;;;;;;;;;;;;19.43;39.21;101659.97;5020664;28;19928;-90
2022/04/11 04:15:52;;;;;;;;;;;;;;;19.44;39.18;101650.63;5036766;28;19920;-91
2022/04/11 04:18:18;;;;;;;;;;;;;;;19.42;39.25;101653.63;5020675;28;19925;-90
2022/04/11 04:20:43;;;;;;;;;;;;;;;19.42;39.36;101653.63;5020112;28;20365;-91
2022/04/11 04:23:08;;;;;;;;;;;;;;;19.42;39.23;101656.38;5036386;28;19947;-90
2022/04/11 04:25:34;;;;;;;;;;;;;;;19.42;39.26;101650.06;5036385;28;19916;-91
2022/04/11 04:27:59;;;;;;;;;;;;;;;19.41;39.26;101648.44;5036629;28;19916;-91
2022/04/11 04:30:25;;;;;;;;;;;;;;;19.40;39.47;101655.00;5053234;28;20285;-90
2022/04/11 04:32:50;;;;;;;;;;;;;;;19.40;39.24;101646.78;5054302;28;20284;-91
2022/04/11 04:35:16;;;;;;;;;;;;;;;19.39;39.24;101650.66;5021104;28;20058;-91
2022/04/11 04:37:41;;;;;;;;;;;;;;;19.39;39.26;101650.66;5036506;28;19917;-91
2022/04/11 04:40:07;;;;;;;;;;;;;;;19.38;39.39;101643.53;5020394;28;20341;-91
2022/04/11 04:42:32;;;;;;;;;;;;;;;19.38;39.40;101646.28;5036367;28;20393;-91
2022/04/11 04:44:57;;;;;;;;;;;;;;;19.38;39.27;101640.78;5054561;28;19925;-89
2022/04/11 04:47:25;;;;;;;;;;;;;;;19.36;39.45;101645.72;5019576;28;19921;-92
2022/04/11 04:49:51;;;;;;;;;;;;;;;19.36;39.35;101637.50;5036990;28;19921;-91
2022/04/11 04:52:16;;;;;;;;;;;;;;;19.35;39.27;101642.19;5054260;28;19917;-90
2022/04/11 04:54:41;;;;;;;;;;;;;;;19.35;39.19;101638.59;5023927;28;19961;-90
2022/04/11 04:57:07;;;;;;;;;;;;;;;19.34;39.41;101634.22;5023758;28;19921;-91
2022/04/11 04:59:32;;;;;;;;;;;;;;;19.34;39.25;101635.03;5039834;28;19928;-88
2022/04/11 05:01:57;;;;;;;;;;;;;;;19.34;39.46;101634.22;5057731;28;19928;-89
2022/04/11 05:04:23;;;;;;;;;;;;;;;19.33;39.11;101627.13;5040259;28;19928;-90
2022/04/11 05:06:49;;;;;;;;;;;;;;;19.33;39.46;101635.34;5056421;28;20359;-89
2022/04/11 05:09:14;;;;;;;;;;;;;;;19.32;39.33;101628.19;5023593;28;19920;-89
2022/04/11 05:11:39;;;;;;;;;;;;;;;19.32;39.33;101625.47;5023785;28;20365;-89
2022/04/11 05:14:05;;;;;;;;;;;;;;;19.32;39.24;101625.47;5039946;28;20319;-89
2022/04/11 05:16:30;;;;;;;;;;;;;;;19.31;39.20;101624.66;5039888;28;19921;-88
2022/04/11 05:18:56;;;;;;;;;;;;;;;19.30;39.30;101631.22;5039927;28;19928;-92
2022/04/11 05:21:21;;;;;;;;;;;;;;;19.31;39.22;101623.84;5039640;28;20379;-89
2022/04/11 05:23:46;;;;;;;;;;;;;;;19.30;39.16;101625.72;5023012;28;19960;-89
2022/04/11 05:26:12;;;;;;;;;;;;;;;19.30;39.12;101625.72;5028097;28;20428;-86
2022/04/11 05:28:37;;;;;;;;;;;;;;;19.30;39.38;101628.47;5039112;28;19951;-89
2022/04/11 05:31:02;;;;;;;;;;;;;;;19.28;39.32;101622.47;5072090;28;20368;-89
2022/04/11 05:33:28;;;;;;;;;;;;;;;19.29;39.04;101624.09;5023147;28;19932;-89
2022/04/11 05:35:53;;;;;;;;;;;;;;;19.28;39.24;101627.94;5056238;28;20360;-90
2022/04/11 05:38:19;;;;;;;;;;;;;;;19.29;39.17;101626.03;5039781;28;20365;-85
2022/04/11 05:40:45;;;;;;;;;;;;;;;19.28;39.41;101627.94;5056495;28;20319;-90
2022/04/11 05:43:10;;;;;;;;;;;;;;;19.29;39.43;101636.97;5022817;28;20365;-80
2022/04/11 05:45:35;;;;;;;;;;;;;;;19.30;39.42;101622.19;5021645;28;20346;-79
2022/04/11 05:48:00;;;;;;;;;;;;;;;19.30;39.54;101631.22;5056071;28;19953;-79
2022/04/11 05:50:26;;;;;;;;;;;;;;;19.31;39.62;101626.56;5054719;28;19920;-81
2022/04/11 05:52:51;;;;;;;;;;;;;;;19.32;39.62;101633.69;5038140;28;19928;-78
2022/04/11 05:55:16;;;;;;;;;;;;;;;19.31;39.73;101632.06;5038055;28;20450;-79
2022/04/11 05:57:43;;;;;;;;;;;;;;;19.30;39.58;101627.66;5037868;28;20019;-79
2022/04/11 06:00:08;;;;;;;;;;;;;;;19.30;39.83;101631.22;5055430;28;20399;-78
2022/04/11 06:02:33;;;;;;;;;;;;;;;19.30;39.71;101625.72;5021293;28;19921;-79
2022/04/11 06:04:59;;;;;;;;;;;;;;;19.29;39.68;101632.31;5021297;28;19967;-78
2022/04/11 06:07:26;;;;;;;;;;;;;;;19.30;39.94;101627.66;5055771;28;20359;-79
2022/04/11 06:09:51;;;;;;;;;;;;;;;19.30;39.65;101630.41;5055526;28;19928;-78
2022/04/11 06:12:17;;;;;;;;;;;;;;;19.29;39.95;101634.25;5037654;28;19917;-79
2022/04/11 06:14:42;;;;;;;;;;;;;;;19.30;39.95;101642.16;5055464;28;20320;-78
2022/04/11 06:17:07;;;;;;;;;;;;;;;19.31;39.86;101632.06;5037483;28;19927;-79
2022/04/11 06:19:33;;;;;;;;;;;;;;;19.31;39.97;101632.06;5037602;28;20339;-78
2022/04/11 06:21:58;;;;;;;;;;;;;;;19.30;39.83;101633.94;5053803;28;19925;-78
2022/04/11 06:24:23;;;;;;;;;;;;;;;19.30;39.84;101642.16;5021034;28;19956;-77
2022/04/11 06:26:48;;;;;;;;;;;;;;;19.30;39.88;101642.16;5053956;28;19948;-79
2022/04/11 06:29:14;;;;;;;;;;;;;;;19.30;40.03;101642.16;5055271;28;19921;-78
2022/04/11 06:31:39;;;;;;;;;;;;;;;19.30;40.07;101639.44;5055056;28;20035;-79
2022/04/11 06:34:04;;;;;;;;;;;;;;;19.31;40.22;101645.75;5037187;28;19921;-88
2022/04/11 06:36:29;;;;;;;;;;;;;;;19.30;40.26;101642.16;5021049;28;19921;-86
2022/04/11 06:38:55;;;;;;;;;;;;;;;19.32;40.52;101641.91;5053647;28;19917;-89
2022/04/11 06:41:20;;;;;;;;;;;;;;;19.33;40.16;101644.38;5023082;28;19921;-90
2022/04/11 06:43:45;;;;;;;;;;;;;;;19.34;40.20;101636.97;5055294;28;19925;-90
2022/04/11 06:46:10;;;;;;;;;;;;;;;19.36;40.15;101640.25;5053819;28;20352;-89
2022/04/11 06:48:36;;;;;;;;;;;;;;;19.38;40.31;101638.88;5037194;28;20368;-91
2022/04/11 06:51:01;;;;;;;;;;;;;;;19.40;40.37;101638.56;5054575;28;19920;-89
2022/04/11 06:53:27;;;;;;;;;;;;;;;19.42;40.18;101644.59;5055476;28;19921;-89
2022/04/11 06:55:52;;;;;;;;;;;;;;;19.42;40.47;101639.94;5054831;28;19917;-91
2022/04/11 06:58:17;;;;;;;;;;;;;;;19.44;40.28;101643.22;5021667;28;20338;-89
2022/04/11 07:00:43;;;;;;;;;;;;;;;19.46;40.41;101645.69;5054984;28;20424;-85
2022/04/11 07:03:09;;;;;;;;;;;;;;;19.47;40.40;101644.56;5020216;28;19924;-85
2022/04/11 07:05:34;;;;;;;;;;;;;;;19.48;40.33;101639.91;5054529;28;19917;-86
2022/04/11 07:08:00;;;;;;;;;;;;;;;19.49;40.52;101642.38;5055364;28;19921;-86
2022/04/11 07:10:25;;;;;;;;;;;;;;;19.51;40.45;101636.63;5054610;28;19988;-85
2022/04/11 07:12:50;;;;;;;;;;;;;;;19.52;40.56;101638.25;5019822;28;19921;-83
2022/04/11 07:15:16;;;;;;;;;;;;;;;19.53;40.42;101627.03;5053049;28;19928;-88
2022/04/11 07:17:42;;;;;;;;;;;;;;;19.54;40.32;101625.09;5020190;28;20431;-88
2022/04/11 07:20:08;;;;;;;;;;;;;;;19.55;40.47;101624.00;5054331;28;20000;-86
2022/04/11 07:22:34;;;;;;;;;;;;;;;19.55;40.44;101613.84;5036126;28;20023;-86
2022/04/11 07:25:00;;;;;;;;;;;;;;;19.57;40.56;101619.06;5036156;28;19921;-84
2022/04/11 07:27:25;;;;;;;;;;;;;;;19.57;40.50;101619.06;5036814;28;19974;-90
2022/04/11 07:29:50;;;;;;;;;;;;;;;19.58;40.36;101605.06;5036958;28;19925;-91
2022/04/11 07:32:15;;;;;;;;;;;;;;;19.59;40.51;101611.38;5020592;28;20027;-89
2022/04/11 07:34:41;;;;;;;;;;;;;;;19.60;40.46;101613.00;5054744;28;20280;-86
2022/04/11 07:37:07;;;;;;;;;;;;;;;19.60;40.42;101618.47;5053231;28;19917;-89
2022/04/11 07:39:32;;;;;;;;;;;;;;;19.61;40.63;101610.00;5021414;28;20406;-87
2022/04/11 07:41:58;;;;;;;;;;;;;;;19.62;40.50;101606.13;5035783;28;19916;-88
2022/04/11 07:44:23;;;;;;;;;;;;;;;19.63;40.39;101596.81;5053415;28;19975;-89
2022/04/11 07:46:48;;;;;;;;;;;;;;;19.65;40.68;101599.25;5020351;28;20392;-83
2022/04/11 07:49:13;;;;;;;;;;;;;;;19.65;40.62;101599.25;5019399;28;19928;-84
2022/04/11 07:51:39;;;;;;;;;;;;;;;19.66;40.41;101604.47;5053083;28;20099;-86
2022/04/11 07:54:06;;;;;;;;;;;;;;;19.67;40.33;101597.91;5052245;28;20465;-86
2022/04/11 07:56:31;;;;;;;;;;;;;;;19.68;40.28;101593.28;5036863;28;19932;-87
2022/04/11 07:58:57;;;;;;;;;;;;;;;19.70;40.23;101596.53;5019873;28;19925;-88
2022/04/11 08:01:22;;;;;;;;;;;;;;;19.71;40.46;101581.75;5053649;28;19939;-88
2022/04/11 08:03:47;;;;;;;;;;;;;;;19.72;40.36;101579.81;5035872;28;19921;-86
2022/04/11 08:06:13;;;;;;;;;;;;;;;19.72;40.21;101577.88;5052406;28;20430;-84
2022/04/11 08:08:44;;;;;;;;;;;;;;;19.73;40.18;101576.78;5053423;28;19920;-84
2022/04/11 08:11:09;;;;;;;;;;;;;;;19.73;40.13;101574.06;5035917;28;19925;-83
2022/04/11 08:13:35;;;;;;;;;;;;;;;19.73;40.14;101574.06;5019536;28;20290;-83
2022/04/11 08:16:00;;;;;;;;;;;;;;;19.74;40.15;101577.59;5018979;28;19921;-83
2022/04/11 08:18:25;;;;;;;;;;;;;;;19.75;40.12;101569.09;5018706;28;19924;-85
2022/04/11 08:20:50;;;;;;;;;;;;;;;19.75;40.11;101574.56;5018639;28;19921;-85
2022/04/11 08:23:15;;;;;;;;;;;;;;;19.76;40.20;101572.66;5018932;28;20257;-85
2022/04/11 08:25:41;;;;;;;;;;;;;;;19.75;40.18;101560.84;5053655;28;19921;-85
2022/04/11 08:28:06;;;;;;;;;;;;;;;19.76;40.11;101564.44;5036222;28;19917;-86
2022/04/11 08:30:31;;;;;;;;;;;;;;;19.76;40.25;101568.00;5038447;28;20285;-84
2022/04/11 08:32:57;;;;;;;;;;;;;;;19.77;40.06;101568.81;5056936;28;19967;-83
2022/04/11 08:35:22;;;;;;;;;;;;;;;19.78;40.35;101565.78;5057339;28;20288;-82
2022/04/11 08:37:48;;;;;;;;;;;;;;;19.78;40.05;101564.94;5056939;28;20323;-84
2022/04/11 08:40:14;;;;;;;;;;;;;;;19.78;40.26;101570.44;5056998;28;19952;-82
2022/04/11 08:42:40;;;;;;;;;;;;;;;19.80;39.98;101562.75;5039589;28;19943;-83
2022/04/11 08:45:06;;;;;;;;;;;;;;;19.79;40.11;101561.94;5022463;28;19921;-83
2022/04/11 08:47:32;;;;;;;;;;;;;;;19.80;40.05;101566.31;5038624;28;20008;-84
2022/04/11 08:49:58;;;;;;;;;;;;;;;19.80;40.11;101560.81;5039797;28;19921;-84
2022/04/11 08:52:25;;;;;;;;;;;;;;;19.83;40.03;101562.16;5056832;28;19924;-86
2022/04/11 08:54:50;;;;;;;;;;;;;;;19.82;39.76;101566.84;5057339;28;19921;-81
2022/04/11 08:57:16;;;;;;;;;;;;;;;19.84;39.81;101566.56;5039077;28;19924;-84
2022/04/11 08:59:41;;;;;;;;;;;;;;;19.85;39.95;101559.97;5018734;28;19932;-82
2022/04/11 09:02:10;;;;;;;;;;;;;;;19.86;40.03;101558.88;5035506;28;19917;-79
2022/04/11 09:04:56;;;;;;;;;;;;;;;19.87;39.92;101560.50;5036668;28;19917;-78
2022/04/11 09:07:21;;;;;;;;;;;;;;;19.87;39.98;101558.59;5035902;28;19924;-78
2022/04/11 09:09:47;;;;;;;;;;;;;;;19.88;39.86;101559.41;5035164;28;19917;-82
2022/04/11 09:12:12;;;;;;;;;;;;;;;19.88;39.94;101543.78;5034781;28;19967;-78
2022/04/11 09:14:38;;;;;;;;;;;;;;;19.90;39.86;101546.22;5036949;28;19967;-76
2022/04/11 09:17:03;;;;;;;;;;;;;;;19.91;39.80;101541.56;5036891;28;20294;-78
2022/04/11 09:19:29;;;;;;;;;;;;;;;19.91;40.05;101533.31;5035314;28;20344;-78
2022/04/11 09:21:54;;;;;;;;;;;;;;;19.94;40.09;101530.03;5036160;28;19971;-80
2022/04/11 09:24:21;;;;;;;;;;;;;;;19.94;39.97;101528.09;5034853;28;19927;-78
2022/04/11 09:26:47;;;;;;;;;;;;;;;19.94;39.84;101536.34;5035940;28;19913;-77
2022/04/11 09:29:12;;;;;;;;;;;;;;;19.96;40.04;101533.28;5035729;28;20353;-78
2022/04/11 09:31:38;;;;;;;;;;;;;;;19.97;39.90;101523.97;5034999;28;19966;-81
2022/04/11 09:34:13;;;;;;;;;;;;;;;19.95;40.05;101524.25;5035781;28;20365;-78
2022/04/11 09:36:43;;;;;;;;;;;;;;;19.96;39.95;101527.81;5035422;28;20074;-78
2022/04/11 09:39:08;;;;;;;;;;;;;;;19.97;39.92;101516.56;5034764;28;19917;-82
2022/04/11 09:41:34;;;;;;;;;;;;;;;19.98;40.00;101518.22;5034427;28;19918;-80
2022/04/11 09:44:22;;;;;;;;;;;;;;;19.99;40.16;101503.38;5035825;28;19924;-79
2022/04/11 09:46:49;;;;;;;;;;;;;;;20.00;39.96;101504.19;5035759;28;19925;-78
2022/04/11 09:49:14;;;;;;;;;;;;;;;20.01;40.11;101500.38;5034407;28;19936;-77
2022/04/11 09:51:58;;;;;;;;;;;;;;;20.01;39.89;101494.88;5034734;28;19921;-78
2022/04/11 09:54:24;;;;;;;;;;;;;;;20.03;40.00;101495.38;5034738;28;19924;-77
2022/04/11 09:56:50;;;;;;;;;;;;;;;20.05;40.09;101495.91;5034646;28;19925;-80
2022/04/11 09:59:16;;;;;;;;;;;;;;;20.04;39.87;101492.38;5033931;28;20352;-77
2022/04/11 10:01:44;;;;;;;;;;;;;;;20.05;39.95;101494.00;5034120;28;19948;-77
2022/04/11 10:04:09;;;;;;;;;;;;;;;20.06;39.99;101489.34;5034307;28;19957;-79
2022/04/11 10:06:35;;;;;;;;;;;;;;;20.07;39.88;101490.97;5034695;28;20039;-85
2022/04/11 10:09:01;;;;;;;;;;;;;;;20.08;40.09;101485.22;5035723;28;19927;-87
2022/04/11 10:11:27;;;;;;;;;;;;;;;20.09;40.11;101486.03;5017908;28;19952;-87
2022/04/11 10:13:53;;;;;;;;;;;;;;;20.10;40.00;101484.91;5034198;28;19924;-86
2022/04/11 10:16:19;;;;;;;;;;;;;;;20.11;40.01;101483.81;5035756;28;19925;-82
2022/04/11 10:18:44;;;;;;;;;;;;;;;20.13;39.92;101492.53;5017705;28;20372;-84
2022/04/11 10:21:12;;;;;;;;;;;;;;;20.13;39.83;101478.84;5034515;28;19949;-85
2022/04/11 10:23:47;;;;;;;;;;;;;;;20.14;39.88;101480.50;5035435;28;20377;-87
2022/04/11 10:26:17;;;;;;;;;;;;;;;20.14;39.78;101480.50;5035380;28;19917;-86
2022/04/11 10:28:47;;;;;;;;;;;;;;;20.16;39.90;101485.66;5034177;28;19975;-89
2022/04/11 10:31:13;;;;;;;;;;;;;;;20.16;39.86;101474.69;5035587;28;19924;-87
2022/04/11 10:33:42;;;;;;;;;;;;;;;20.16;39.66;101470.06;5035602;28;19917;-89
2022/04/11 10:36:34;;;;;;;;;;;;;;;20.18;39.78;101475.22;5034547;28;19936;-84
2022/04/11 10:39:14;;;;;;;;;;;;;;;20.17;39.65;101471.69;5033561;28;19937;-86
2022/04/11 10:41:55;;;;;;;;;;;;;;;20.19;39.65;101454.94;5034642;28;20011;-88
2022/04/11 10:44:44;;;;;;;;;;;;;;;20.19;39.76;101457.69;5033579;28;19918;-88
2022/04/11 10:47:09;;;;;;;;;;;;;;;20.20;39.54;101453.81;5034394;28;20212;-87
2022/04/11 10:49:59;;;;;;;;;;;;;;;20.21;39.61;101449.97;5033491;28;19966;-88
2022/04/11 10:52:36;;;;;;;;;;;;;;;20.21;39.56;101441.72;5034180;28;19917;-90
2022/04/11 10:55:09;;;;;;;;;;;;;;;20.20;39.78;101421.72;5034184;28;20004;-85
2022/04/11 10:57:34;;;;;;;;;;;;;;;20.22;39.69;101425.00;5034214;28;19917;-88
2022/04/11 11:00:10;;;;;;;;;;;;;;;20.23;39.70;101420.31;5046529;28;20406;-83
2022/04/11 11:02:48;;;;;;;;;;;;;;;20.23;39.55;101432.09;5036421;28;19939;-80
2022/04/11 11:05:26;;;;;;;;;;;;;;;20.25;39.70;101420.84;5053028;28;19917;-82
2022/04/11 11:08:10;;;;;;;;;;;;;;;20.26;39.53;101419.72;5036497;28;19967;-82
2022/04/11 11:10:48;;;;;;;;;;;;;;;20.26;39.61;101417.81;5053128;28;19952;-82
2022/04/11 11:13:23;;;;;;;;;;;;;;;20.26;39.80;101406.84;5054168;28;19917;-82
2022/04/11 11:15:48;;;;;;;;;;;;;;;20.27;39.71;101405.72;5053461;28;19917;-82
2022/04/11 11:18:13;;;;;;;;;;;;;;;20.28;39.59;101406.53;5035922;28;20291;-82
2022/04/11 11:20:57;;;;;;;;;;;;;;;20.29;39.78;101386.25;5052933;28;19974;-82
2022/04/11 11:23:25;;;;;;;;;;;;;;;20.29;39.61;101389.78;5054030;28;19927;-82
2022/04/11 11:25:51;;;;;;;;;;;;;;;20.29;39.58;101395.28;5036231;28;19913;-82
2022/04/11 11:28:17;;;;;;;;;;;;;;;20.29;39.59;101378.81;5035941;28;19967;-80
2022/04/11 11:30:42;;;;;;;;;;;;;;;20.30;39.68;101372.22;5053901;28;19952;-82
2022/04/11 11:33:08;;;;;;;;;;;;;;;20.31;39.63;101364.81;5037275;28;19917;-86
2022/04/11 11:35:34;;;;;;;;;;;;;;;20.31;39.63;101362.09;5019528;28;19921;-86
2022/04/11 11:38:03;;;;;;;;;;;;;;;20.30;39.51;101353.00;5036681;28;19928;-86
2022/04/11 11:40:29;;;;;;;;;;;;;;;20.30;39.65;101361.25;5052927;28;19928;-89
2022/04/11 11:42:56;;;;;;;;;;;;;;;20.32;39.74;101347.25;5053849;28;19936;-87
2022/04/11 11:45:28;;;;;;;;;;;;;;;20.31;39.24;101346.44;5054593;28;19921;-89
2022/04/11 11:47:53;;;;;;;;;;;;;;;20.32;39.75;101339.81;5037725;28;19971;-88
2022/04/11 11:50:19;;;;;;;;;;;;;;;20.32;39.78;101337.06;5021640;28;19940;-85
2022/04/11 11:52:57;;;;;;;;;;;;;;;20.34;39.55;101331.31;5035983;28;20008;-85
2022/04/11 11:55:22;;;;;;;;;;;;;;;20.35;39.65;101337.59;5036096;28;19936;-87
2022/04/11 11:58:01;;;;;;;;;;;;;;;20.35;39.49;101332.94;5020173;28;20272;-86
2022/04/11 12:00:32;;;;;;;;;;;;;;;20.36;39.50;101333.75;5035529;28;19928;-83
2022/04/11 12:05:42;;;;;;;;;;;;;;;20.36;39.71;101331.84;5053951;28;19931;-82
2022/04/11 12:08:08;;;;;;;;;;;;;;;20.38;39.56;101331.53;5053636;28;19921;-87
2022/04/11 12:10:35;;;;;;;;;;;;;;;20.38;39.70;101331.53;5054071;28;19917;-83
2022/04/11 12:13:00;;;;;;;;;;;;;;;20.39;39.76;101325.75;5035538;28;19971;-84
2022/04/11 12:15:30;;;;;;;;;;;;;;;20.40;39.49;101324.63;5053010;28;19913;-90
2022/04/11 12:18:00;;;;;;;;;;;;;;;20.42;39.46;101314.19;5053657;28;19923;-85
2022/04/11 12:20:29;;;;;;;;;;;;;;;20.42;39.50;101322.41;5036347;28;19916;-82
2022/04/11 12:23:10;;;;;;;;;;;;;;;20.42;39.66;101307.88;5035477;28;19916;-83
2022/04/11 12:25:50;;;;;;;;;;;;;;;20.43;39.63;101307.56;5035419;28;20273;-82
2022/04/11 12:28:15;;;;;;;;;;;;;;;20.45;39.76;101310.84;5053189;28;19912;-84
2022/04/11 12:30:44;;;;;;;;;;;;;;;20.45;39.52;101310.03;5053401;28;19912;-85
2022/04/11 12:33:13;;;;;;;;;;;;;;;20.46;39.50;101304.25;5035429;28;19921;-87
2022/04/11 12:35:39;;;;;;;;;;;;;;;20.45;39.71;101305.34;5035302;28;19923;-84